Time;durP1;ratioP1;P1;durP2;ratioP2;P2;SDS_P1;SDS_P2;PMS_P1;PMS_P2;Temp;Humidity;BMP_temperature;BMP_pressure;BME280_temperature;BME280_humidity;BME280_pressure;Samples;Min_cycle;Max_cycle;Signal;HPM_P1;HPM_P2
2024/01/29 00:00:25;;;;;;;28.73;16.42;;;;;;;-1.19;100.00;102603.22;5549016;32;34300;-64
2024/01/29 00:03:29;;;;;;;34.00;16.92;;;;;;;-1.19;100.00;102603.22;5548186;32;34009;-63
2024/01/29 00:06:31;;;;;;;30.73;16.87;;;;;;;-1.24;100.00;102599.87;5548965;32;34004;-64
2024/01/29 00:09:35;;;;;;;27.33;16.35;;;;;;;-1.27;100.00;102589.56;5548357;32;34243;-65
2024/01/29 00:12:37;;;;;;;25.98;16.15;;;;;;;-1.28;100.00;102582.63;5548826;32;34157;-64
2024/01/29 00:15:40;;;;;;;28.52;16.23;;;;;;;-1.33;100.00;102581.88;5548887;32;34189;-65
2024/01/29 00:18:43;;;;;;;27.73;16.02;;;;;;;-1.33;100.00;102568.87;5548995;32;35540;-65
2024/01/29 00:21:46;;;;;;;27.95;17.08;;;;;;;-1.38;100.00;102579.41;5548999;32;34016;-66
2024/01/29 00:24:49;;;;;;;13.10;5.07;;;;;;;-1.40;100.00;102583.78;5548828;32;34747;-64
2024/01/29 00:27:52;;;;;;;32.03;19.20;;;;;;;-1.45;100.00;102584.78;5548562;32;34086;-65
2024/01/29 00:30:55;;;;;;;32.80;21.00;;;;;;;-1.41;100.00;102584.69;5548410;32;35095;-63
2024/01/29 00:33:58;;;;;;;35.22;21.37;;;;;;;-1.40;100.00;102583.78;5548661;32;34790;-64
2024/01/29 00:37:01;;;;;;;34.45;20.88;;;;;;;-1.32;100.00;102581.00;5548705;32;34023;-64
2024/01/29 00:40:04;;;;;;;39.92;23.42;;;;;;;-1.40;100.00;102583.78;5547778;32;34113;-64
2024/01/29 00:43:08;;;;;;;34.38;22.13;;;;;;;-1.45;100.00;102588.25;5548373;32;34787;-65
2024/01/29 00:46:11;;;;;;;35.22;21.33;;;;;;;-1.50;100.00;102590.09;5547647;32;35647;-64
2024/01/29 00:49:13;;;;;;;39.72;22.65;;;;;;;-1.56;100.00;102586.81;5548433;32;34032;-64
2024/01/29 00:52:16;;;;;;;36.88;22.77;;;;;;;-1.62;100.00;102605.16;5548391;32;34625;-64
2024/01/29 00:55:19;;;;;;;37.53;22.90;;;;;;;-1.43;100.00;102612.50;5548236;32;34019;-64
2024/01/29 00:58:22;;;;;;;37.72;22.75;;;;;;;-1.36;100.00;102627.09;5548144;32;34329;-64
2024/01/29 01:01:25;;;;;;;35.10;21.80;;;;;;;-1.25;100.00;102621.59;5548380;32;35218;-64
2024/01/29 01:04:28;;;;;;;36.90;21.80;;;;;;;-1.28;100.00;102626.91;5548273;32;34764;-63
2024/01/29 01:07:31;;;;;;;36.55;22.27;;;;;;;-1.39;100.00;102624.53;5547292;32;34805;-64
2024/01/29 01:10:34;;;;;;;16.48;6.85;;;;;;;-1.47;100.00;102634.28;5547272;32;34106;-64
2024/01/29 01:13:36;;;;;;;41.25;25.17;;;;;;;-1.49;100.00;102632.59;5547349;32;34148;-64
2024/01/29 01:16:39;;;;;;;40.65;25.33;;;;;;;-1.56;100.00;102636.25;5547846;32;34023;-64
2024/01/29 01:19:42;;;;;;;41.33;25.10;;;;;;;-1.60;100.00;102634.63;5547709;32;34195;-64
2024/01/29 01:22:46;;;;;;;45.58;27.45;;;;;;;-1.64;100.00;102636.41;5546934;32;34729;-64
2024/01/29 01:25:48;;;;;;;18.30;7.12;;;;;;;-1.70;100.00;102631.38;5550341;32;34182;-65
2024/01/29 01:28:51;;;;;;;46.85;26.40;;;;;;;-1.76;100.00;102627.16;5549783;32;34039;-64
2024/01/29 01:31:54;;;;;;;38.90;24.67;;;;;;;-1.79;100.00;102613.34;5550224;32;34369;-64
2024/01/29 01:34:57;;;;;;;43.40;25.75;;;;;;;-1.82;100.00;102618.62;5550798;32;34425;-64
2024/01/29 01:37:59;;;;;;;45.70;26.95;;;;;;;-1.86;100.00;102617.84;5549717;32;34698;-65
2024/01/29 01:41:03;;;;;;;43.00;26.70;;;;;;;-1.88;100.00;102622.22;5549569;32;34017;-64
2024/01/29 01:44:06;;;;;;;18.00;7.07;;;;;;;-1.89;100.00;102623.09;5549561;32;34037;-65
2024/01/29 01:47:09;;;;;;;46.13;27.85;;;;;;;-1.93;100.00;102618.00;5550242;32;34038;-64
2024/01/29 01:50:11;;;;;;;48.05;28.77;;;;;;;-1.99;100.00;102618.16;5550389;32;34405;-65
2024/01/29 01:53:14;;;;;;;45.40;27.67;;;;;;;-1.86;100.00;102610.03;5550431;32;34061;-64
2024/01/29 01:56:18;;;;;;;14.43;6.82;;;;;;;-1.96;100.00;102608.53;5550514;32;34275;-64
2024/01/29 01:59:21;;;;;;;47.62;29.15;;;;;;;-1.98;100.00;102617.25;5549548;32;34135;-64
2024/01/29 02:02:24;;;;;;;45.72;30.02;;;;;;;-2.07;100.00;102610.50;5549413;32;34498;-65
2024/01/29 02:05:27;;;;;;;48.80;31.60;;;;;;;-2.07;100.00;102618.31;5550253;32;35080;-64
2024/01/29 02:08:30;;;;;;;49.40;32.15;;;;;;;-1.91;100.00;102611.88;5550182;32;34801;-64
2024/01/29 02:11:33;;;;;;;22.70;8.90;;;;;;;-1.95;100.00;102604.19;5550178;32;34788;-64
2024/01/29 02:14:35;;;;;;;54.83;33.00;;;;;;;-2.04;100.00;102614.78;5550057;32;33162;-64
2024/01/29 02:17:38;;;;;;;48.67;30.75;;;;;;;-2.11;100.00;102608.84;5550003;32;34086;-63
2024/01/29 02:20:41;;;;;;;53.15;32.63;;;;;;;-2.12;100.00;102603.69;5550033;32;34212;-65
2024/01/29 02:23:45;;;;;;;48.30;31.87;;;;;;;-2.13;100.00;102608.03;5549906;32;34185;-64
2024/01/29 02:26:48;;;;;;;52.00;32.85;;;;;;;-2.13;100.00;102596.78;5550095;32;34376;-64
2024/01/29 02:29:50;;;;;;;18.55;8.40;;;;;;;-2.15;100.00;102609.81;5549929;32;34038;-64
2024/01/29 02:32:53;;;;;;;52.42;33.45;;;;;;;-2.09;100.00;102616.63;5549103;32;35630;-64
2024/01/29 02:35:56;;;;;;;48.67;32.58;;;;;;;-2.21;100.00;102597.78;5548528;32;34950;-64
2024/01/29 02:38:59;;;;;;;51.35;32.95;;;;;;;-2.26;100.00;102602.25;5549244;32;34103;-64
2024/01/29 02:42:02;;;;;;;48.15;33.40;;;;;;;-2.27;100.00;102595.31;5549995;32;34368;-64
2024/01/29 02:45:05;;;;;;;48.95;32.22;;;;;;;-2.19;100.00;102587.38;5549827;32;34053;-64
2024/01/29 02:48:08;;;;;;;49.40;32.30;;;;;;;-2.13;100.00;102589.00;5549915;32;34101;-65
2024/01/29 02:51:10;;;;;;;51.03;33.33;;;;;;;-2.16;100.00;102586.44;5549712;32;34751;-65
2024/01/29 02:54:13;;;;;;;51.17;31.65;;;;;;;-2.26;100.00;102581.44;5549759;32;34241;-65
2024/01/29 02:57:23;;;;;;;47.20;31.45;;;;;;;-2.29;100.00;102583.25;5549736;32;34395;-65
2024/01/29 03:00:27;;;;;;;;;;;;;;;-2.30;100.00;102589.34;5549358;32;34691;-64
2024/01/29 03:03:30;;;;;;;47.33;29.67;;;;;;;-2.35;100.00;102593.78;5549621;32;34568;-64
2024/01/29 03:06:33;;;;;;;14.45;6.05;;;;;;;-2.34;100.00;102591.16;5549742;32;34686;-65
2024/01/29 03:09:36;;;;;;;41.90;27.17;;;;;;;-2.41;100.00;102597.34;5550003;32;34310;-65
2024/01/29 03:12:39;;;;;;;45.63;28.38;;;;;;;-2.37;100.00;102603.37;5549545;32;34774;-65
2024/01/29 03:15:44;;;;;;;12.43;6.35;;;;;;;-2.21;100.00;102600.41;5549396;32;35041;-65
2024/01/29 03:18:48;;;;;;;46.00;28.48;;;;;;;-2.33;100.00;102605.87;5549551;32;34214;-65
2024/01/29 03:21:51;;;;;;;48.75;30.65;;;;;;;-2.39;100.00;102605.97;5549572;32;35089;-65
2024/01/29 03:24:54;;;;;;;51.05;31.83;;;;;;;-2.36;100.00;102610.25;5549444;32;35106;-65
2024/01/29 03:27:56;;;;;;;49.10;30.55;;;;;;;-2.43;100.00;102612.13;5549524;32;34782;-64
2024/01/29 03:30:59;;;;;;;50.20;32.38;;;;;;;-2.43;100.00;102608.69;5549311;32;34025;-65
2024/01/29 03:34:02;;;;;;;44.75;30.10;;;;;;;-2.35;100.00;102610.22;5549414;32;34445;-65
2024/01/29 03:37:05;;;;;;;43.47;28.52;;;;;;;-2.29;100.00;102607.50;5549568;32;34064;-65
2024/01/29 03:40:08;;;;;;;44.00;28.12;;;;;;;-2.28;100.00;102617.03;5549527;32;34417;-65
2024/01/29 03:43:12;;;;;;;19.90;7.82;;;;;;;-2.32;100.00;102606.69;5549347;32;34173;-65
2024/01/29 03:46:14;;;;;;;44.40;27.92;;;;;;;-2.45;100.00;102600.91;5548741;32;34046;-65
2024/01/29 03:49:17;;;;;;;43.70;27.73;;;;;;;-2.54;100.00;102588.09;5548600;32;34653;-65
2024/01/29 03:52:20;;;;;;;40.55;26.37;;;;;;;-2.56;100.00;102596.78;5549284;32;34430;-65
2024/01/29 03:55:23;;;;;;;14.55;6.72;;;;;;;-2.64;100.00;102596.94;5548543;32;34859;-65
2024/01/29 03:58:26;;;;;;;38.40;25.30;;;;;;;-2.73;100.00;102597.13;5549227;32;34719;-65
2024/01/29 04:01:29;;;;;;;38.47;24.00;;;;;;;-2.80;100.00;102598.97;5548534;32;34071;-65
2024/01/29 04:04:33;;;;;;;37.50;24.12;;;;;;;-2.82;100.00;102607.69;5549187;32;34274;-65
2024/01/29 04:07:37;;;;;;;17.40;6.25;;;;;;;-2.83;100.00;102603.37;5548979;32;34286;-65
2024/01/29 04:10:40;;;;;;;39.30;24.73;;;;;;;-2.87;100.00;102606.94;5548996;32;33939;-65
2024/01/29 04:13:43;;;;;;;40.78;25.20;;;;;;;-2.87;100.00;102605.19;5548862;32;34135;-65
2024/01/29 04:16:45;;;;;;;39.88;26.40;;;;;;;-2.81;100.00;102605.06;5548254;32;34648;-65
2024/01/29 04:19:48;;;;;;;40.60;25.70;;;;;;;-2.80;100.00;102611.09;5548160;32;34740;-64
2024/01/29 04:22:51;;;;;;;41.58;26.62;;;;;;;-2.86;100.00;102606.06;5548865;32;34049;-64
2024/01/29 04:25:54;;;;;;;19.42;7.85;;;;;;;-2.72;100.00;102599.72;5548777;32;34118;-64
2024/01/29 04:28:57;;;;;;;41.10;26.67;;;;;;;-2.78;100.00;102597.22;5548805;32;34264;-64
2024/01/29 04:31:59;;;;;;;12.93;5.95;;;;;;;-2.90;100.00;102599.16;5548551;32;34779;-64
2024/01/29 04:35:03;;;;;;;38.22;25.40;;;;;;;-2.91;100.00;102602.69;5548841;32;34421;-65
2024/01/29 04:38:06;;;;;;;43.63;27.65;;;;;;;-2.89;100.00;102601.75;5547894;32;34134;-64
2024/01/29 04:41:17;;;;;;;31.98;7.00;;;;;;;-2.97;100.00;102597.59;5548553;32;34140;-65
2024/01/29 04:44:20;;;;;;;46.08;28.17;;;;;;;-2.96;100.00;102596.72;5548039;32;34183;-64
2024/01/29 04:47:23;;;;;;;44.30;26.62;;;;;;;-2.98;100.00;102614.91;5548388;32;34227;-64
2024/01/29 04:50:26;;;;;;;43.38;28.08;;;;;;;-3.00;100.00;102623.63;5548226;32;34225;-65
2024/01/29 04:53:29;;;;;;;12.35;6.28;;;;;;;-3.03;100.00;102623.66;5548233;32;34305;-64
2024/01/29 04:56:31;;;;;;;47.33;29.58;;;;;;;-3.06;100.00;102629.78;5548193;32;33989;-65
2024/01/29 04:59:34;;;;;;;44.28;29.52;;;;;;;-3.04;100.00;102627.13;5549580;32;34169;-64
2024/01/29 05:02:37;;;;;;;10.48;6.18;;;;;;;-2.85;100.00;102620.72;5550688;32;34851;-65
2024/01/29 05:05:40;;;;;;;41.72;28.70;;;;;;;-2.96;100.00;102623.53;5550565;32;34539;-65
2024/01/29 05:08:43;;;;;;;14.75;7.70;;;;;;;-3.04;100.00;102621.94;5550695;32;34035;-64
2024/01/29 05:11:46;;;;;;;47.78;30.60;;;;;;;-3.03;100.00;102623.66;5550663;32;34926;-64
2024/01/29 05:14:49;;;;;;;45.58;29.23;;;;;;;-3.00;100.00;102626.22;5550467;32;34042;-65
2024/01/29 05:17:51;;;;;;;42.45;28.80;;;;;;;-3.00;100.00;102644.41;5550489;32;34058;-64
2024/01/29 05:20:55;;;;;;;44.08;28.90;;;;;;;-2.98;100.00;102634.81;5550878;32;34813;-65
2024/01/29 05:23:58;;;;;;;45.65;30.08;;;;;;;-2.98;100.00;102643.47;5550585;32;34109;-65
2024/01/29 05:27:01;;;;;;;43.17;29.95;;;;;;;-3.01;100.00;102643.53;5550637;32;34117;-64
2024/01/29 05:30:05;;;;;;;41.15;29.87;;;;;;;-3.02;100.00;102638.34;5550386;32;34170;-64
2024/01/29 05:33:08;;;;;;;44.33;29.55;;;;;;;-3.06;100.00;102632.38;5550263;32;34755;-65
2024/01/29 05:36:28;;;;;;;46.42;29.75;;;;;;;-3.11;100.00;102626.41;5550347;32;34473;-67
2024/01/29 05:39:31;;;;;;;12.20;5.95;;;;;;;-3.12;100.00;102622.94;5550414;32;34107;-65
2024/01/29 05:42:34;;;;;;;44.28;29.30;;;;;;;-3.07;100.00;102620.25;5550347;32;34881;-64
2024/01/29 05:45:37;;;;;;;16.65;6.30;;;;;;;-3.05;100.00;102620.25;5550156;32;34712;-64
2024/01/29 05:48:40;;;;;;;42.78;29.02;;;;;;;-3.00;100.00;102613.25;5550729;32;33966;-63
2024/01/29 05:51:42;;;;;;;43.30;28.73;;;;;;;-3.04;100.00;102619.34;5550362;32;34426;-65
2024/01/29 05:54:45;;;;;;;19.75;6.65;;;;;;;-3.10;100.00;102618.56;5550228;32;34647;-65
2024/01/29 05:57:49;;;;;;;48.55;29.17;;;;;;;-3.13;100.00;102626.41;5550253;32;34044;-65
2024/01/29 06:00:52;;;;;;;42.95;28.87;;;;;;;-3.12;100.00;102617.75;5550139;32;34034;-65
2024/01/29 06:03:55;;;;;;;41.92;26.80;;;;;;;-3.14;100.00;102611.72;5550535;32;33993;-65
2024/01/29 06:06:59;;;;;;;42.15;27.27;;;;;;;-3.17;100.00;102616.97;5549843;32;35784;-65
2024/01/29 06:10:03;;;;;;;40.97;25.35;;;;;;;-3.16;100.00;102617.81;5549778;32;34643;-65
2024/01/29 06:13:06;;;;;;;11.05;5.43;;;;;;;-3.14;100.00;102627.28;5549956;32;33224;-66
2024/01/29 06:16:09;;;;;;;39.63;25.27;;;;;;;-3.14;100.00;102632.47;5550337;32;34179;-65
2024/01/29 06:19:17;;;;;;;34.08;23.40;;;;;;;-3.16;100.00;102626.47;5549782;32;33895;-65
2024/01/29 06:22:21;;;;;;;36.30;24.75;;;;;;;-3.09;100.00;102633.25;5548898;32;34778;-65
2024/01/29 06:25:24;;;;;;;35.00;23.90;;;;;;;-3.10;100.00;102635.91;5549723;32;33956;-65
2024/01/29 06:28:27;;;;;;;42.25;25.95;;;;;;;-3.09;100.00;102635.84;5549586;32;34093;-65
2024/01/29 06:31:30;;;;;;;8.43;5.45;;;;;;;-3.05;100.00;102633.22;5549701;32;33767;-64
2024/01/29 06:34:34;;;;;;;36.45;26.48;;;;;;;-3.04;100.00;102647.91;5549671;32;34044;-65
2024/01/29 06:37:38;;;;;;;23.48;7.65;;;;;;;-2.99;100.00;102651.28;5548590;32;34797;-64
2024/01/29 06:40:42;;;;;;;41.65;25.75;;;;;;;-2.96;100.00;102644.31;5548409;32;34341;-64
2024/01/29 06:43:44;;;;;;;41.33;26.85;;;;;;;-2.95;100.00;102643.41;5549360;32;34182;-64
2024/01/29 06:46:47;;;;;;;9.45;4.47;;;;;;;-2.80;100.00;102642.28;5549087;32;34712;-64
2024/01/29 06:49:50;;;;;;;39.72;26.80;;;;;;;-2.44;100.00;102641.59;5548736;32;34118;-65
2024/01/29 06:52:53;;;;;;;38.65;25.23;;;;;;;-2.05;100.00;102652.94;5550186;32;34088;-65
2024/01/29 06:55:59;;;;;;;40.28;26.27;;;;;;;-2.09;100.00;102643.50;5549088;32;34341;-65
2024/01/29 06:59:02;;;;;;;41.85;26.20;;;;;;;-2.20;100.00;102642.84;5548597;32;34409;-65
2024/01/29 07:02:06;;;;;;;38.40;25.05;;;;;;;-2.31;100.00;102647.41;5549283;32;34261;-65
2024/01/29 07:05:09;;;;;;;40.70;26.12;;;;;;;-2.33;100.00;102655.25;5549692;32;34309;-65
2024/01/29 07:08:12;;;;;;;36.83;23.33;;;;;;;-2.33;100.00;102657.84;5549053;32;35392;-65
2024/01/29 07:11:15;;;;;;;34.38;23.87;;;;;;;-2.30;100.00;102667.31;5549471;32;34133;-64
2024/01/29 07:14:18;;;;;;;36.53;23.67;;;;;;;-2.27;100.00;102657.72;5549429;32;34798;-65
2024/01/29 07:17:21;;;;;;;34.35;22.50;;;;;;;-2.23;100.00;102661.97;5549275;32;34028;-65
2024/01/29 07:20:23;;;;;;;9.68;5.32;;;;;;;-2.18;100.00;102679.25;5549408;32;35477;-65
2024/01/29 07:23:28;;;;;;;28.38;18.85;;;;;;;-2.11;100.00;102673.87;5548589;32;34702;-65
2024/01/29 07:26:32;;;;;;;33.92;23.05;;;;;;;-2.00;100.00;102671.06;5549109;32;34311;-65
2024/01/29 07:29:35;;;;;;;38.05;24.37;;;;;;;-1.79;100.00;102681.84;5549307;32;33720;-64
2024/01/29 07:32:38;;;;;;;40.72;25.42;;;;;;;-1.69;100.00;102684.28;5548390;32;34245;-65
2024/01/29 07:35:42;;;;;;;38.50;24.42;;;;;;;-1.55;100.00;102685.66;5549075;32;34376;-65
2024/01/29 07:38:44;;;;;;;40.55;25.45;;;;;;;-1.52;100.00;102682.16;5549034;32;34350;-65
2024/01/29 07:41:47;;;;;;;38.85;25.10;;;;;;;-1.51;100.00;102681.25;5548301;32;34170;-66
2024/01/29 07:44:51;;;;;;;36.13;24.85;;;;;;;-1.44;100.00;102682.81;5548956;32;35690;-66
2024/01/29 07:47:54;;;;;;;42.20;25.80;;;;;;;-1.28;100.00;102678.97;5548943;32;34108;-66
2024/01/29 07:50:57;;;;;;;43.67;25.67;;;;;;;-1.14;100.00;102674.28;5549242;32;35017;-66
2024/01/29 07:54:00;;;;;;;38.90;25.00;;;;;;;-1.01;100.00;102680.03;5549147;32;34131;-66
2024/01/29 07:57:03;;;;;;;41.20;25.77;;;;;;;-1.04;100.00;102680.13;5548923;32;34643;-65
2024/01/29 08:00:06;;;;;;;39.30;25.90;;;;;;;-1.06;100.00;102682.75;5548544;32;34257;-66
2024/01/29 08:03:09;;;;;;;39.78;25.25;;;;;;;-1.01;100.00;102667.88;5548303;32;34284;-65
2024/01/29 08:06:12;;;;;;;36.17;25.95;;;;;;;-0.98;100.00;102661.75;5548809;32;34731;-65
2024/01/29 08:09:15;;;;;;;44.88;26.33;;;;;;;-0.90;100.00;102662.41;5548731;32;34433;-65
2024/01/29 08:12:19;;;;;;;40.83;27.73;;;;;;;-0.77;100.00;102661.19;5548688;32;34054;-66
2024/01/29 08:15:23;;;;;;;40.03;25.58;;;;;;;-0.68;100.00;102662.72;5548677;32;34131;-66
2024/01/29 08:18:26;;;;;;;44.90;27.42;;;;;;;-0.57;100.00;102651.09;5548629;32;34518;-66
2024/01/29 08:21:29;;;;;;;38.13;25.33;;;;;;;-0.53;100.00;102654.47;5548657;32;34615;-66
2024/01/29 08:24:32;;;;;;;41.13;24.50;;;;;;;-0.32;100.00;102659.09;5548619;32;34816;-66
2024/01/29 08:27:35;;;;;;;37.80;23.75;;;;;;;-0.25;100.00;102660.66;5548261;32;34047;-65
2024/01/29 08:30:40;;;;;;;39.28;23.40;;;;;;;-0.21;100.00;102657.06;5548016;32;34707;-65
2024/01/29 08:33:43;;;;;;;43.20;22.73;;;;;;;-0.11;100.00;102653.28;5549366;32;34047;-65
2024/01/29 08:36:46;;;;;;;38.67;22.85;;;;;;;-0.04;100.00;102657.41;5550899;32;34142;-65
2024/01/29 08:39:49;;;;;;;38.97;22.23;;;;;;;0.06;100.00;102662.34;5550951;32;35016;-65
2024/01/29 08:42:52;;;;;;;36.47;22.02;;;;;;;0.11;100.00;102671.78;5550741;32;34090;-66
2024/01/29 08:45:54;;;;;;;43.35;21.50;;;;;;;0.22;100.00;102667.09;5550029;32;34402;-66
2024/01/29 08:48:57;;;;;;;36.75;21.37;;;;;;;0.27;100.00;102661.72;5550474;32;34746;-67
2024/01/29 08:52:00;;;;;;;34.95;21.25;;;;;;;0.41;100.00;102672.62;5550703;32;35006;-67
2024/01/29 08:55:03;;;;;;;35.58;21.08;;;;;;;0.60;100.00;102670.28;5550687;32;34110;-67
2024/01/29 08:58:06;;;;;;;36.90;22.00;;;;;;;0.68;100.00;102668.28;5550075;32;33910;-67
2024/01/29 09:01:12;;;;;;;42.88;24.73;;;;;;;0.97;100.00;102673.41;5550908;32;34195;-67
2024/01/29 09:04:15;;;;;;;37.28;23.92;;;;;;;1.14;100.00;102665.88;5550417;32;34064;-67
2024/01/29 09:07:18;;;;;;;37.08;23.85;;;;;;;1.25;100.00;102670.75;5550701;32;34209;-67
2024/01/29 09:10:22;;;;;;;41.08;23.98;;;;;;;1.34;100.00;102675.66;5550588;32;35471;-67
2024/01/29 09:13:24;;;;;;;39.17;23.70;;;;;;;1.42;100.00;102668.41;5550422;32;33992;-68
2024/01/29 09:16:28;;;;;;;37.97;23.33;;;;;;;1.46;100.00;102672.59;5549781;32;34053;-67
2024/01/29 09:19:31;;;;;;;39.55;23.45;;;;;;;1.54;100.00;102675.81;5550574;32;34020;-66
2024/01/29 09:22:34;;;;;;;41.80;24.17;;;;;;;1.61;100.00;102682.53;5549771;32;34189;-67
2024/01/29 09:25:36;;;;;;;40.50;24.12;;;;;;;1.75;100.00;102680.28;5550210;32;34719;-67
2024/01/29 09:28:41;;;;;;;44.35;24.60;;;;;;;1.86;100.00;102679.03;5549373;32;34089;-66
2024/01/29 09:31:44;;;;;;;47.85;25.98;;;;;;;1.90;100.00;102680.63;5549979;32;34783;-67
2024/01/29 09:34:47;;;;;;;41.97;25.48;;;;;;;2.14;100.00;102677.97;5550417;32;34067;-67
2024/01/29 09:37:50;;;;;;;44.30;25.73;;;;;;;2.18;100.00;102676.94;5550241;32;34816;-67
2024/01/29 09:40:54;;;;;;;39.35;24.25;;;;;;;2.24;100.00;102681.09;5549881;32;34377;-67
2024/01/29 09:44:00;;;;;;;38.97;23.75;;;;;;;2.35;100.00;102683.31;5549654;32;34729;-67
2024/01/29 09:47:05;;;;;;;39.17;21.17;;;;;;;2.48;100.00;102679.28;5550431;32;34138;-67
2024/01/29 09:50:09;;;;;;;41.45;19.77;;;;;;;2.52;100.00;102676.47;5549207;32;34136;-67
2024/01/29 09:53:16;;;;;;;33.95;18.37;;;;;;;2.62;100.00;102669.97;5550047;32;34393;-67
2024/01/29 09:56:19;;;;;;;28.35;18.00;;;;;;;2.97;100.00;102673.78;5549039;32;35033;-67
2024/01/29 09:59:22;;;;;;;32.42;18.33;;;;;;;2.91;100.00;102666.16;5549275;32;34955;-67
2024/01/29 10:02:26;;;;;;;30.15;16.50;;;;;;;2.87;100.00;102661.97;5549027;32;34180;-67
2024/01/29 10:05:33;;;;;;;37.58;17.10;;;;;;;2.99;100.00;102665.88;5549022;32;34060;-67
2024/01/29 10:08:37;;;;;;;28.67;16.60;;;;;;;3.11;100.00;102670.59;5549883;32;34023;-68
2024/01/29 10:11:42;;;;;;;29.05;16.65;;;;;;;3.13;100.00;102660.91;5548805;32;34318;-67
2024/01/29 10:14:44;;;;;;;31.42;15.73;;;;;;;3.19;100.00;102663.28;5549913;32;33998;-66
2024/01/29 10:17:47;;;;;;;28.70;15.15;;;;;;;3.35;100.00;102663.44;5549050;32;34053;-68
2024/01/29 10:21:06;;;;;;;22.75;13.73;;;;;;;3.33;100.00;102655.66;5549934;32;34218;-68
2024/01/29 10:24:14;;;;;;;20.50;11.95;;;;;;;3.45;100.00;102651.62;5550242;32;35072;-67
2024/01/29 10:27:17;;;;;;;19.12;10.60;;;;;;;3.68;100.00;102655.91;5549191;32;33659;-67
2024/01/29 10:30:20;;;;;;;20.10;11.20;;;;;;;3.87;100.00;102662.84;5549895;32;34068;-67
2024/01/29 10:33:23;;;;;;;18.85;9.90;;;;;;;3.80;100.00;102664.06;5549881;32;34170;-67
2024/01/29 10:36:27;;;;;;;19.70;10.35;;;;;;;4.01;100.00;102662.25;5550379;32;34264;-67
2024/01/29 10:39:36;;;;;;;20.05;10.60;;;;;;;4.17;100.00;102660.63;5549959;32;34863;-67
2024/01/29 10:42:51;;;;;;;18.23;10.35;;;;;;;4.11;100.00;102654.81;5549037;32;34150;-66
2024/01/29 10:45:54;;;;;;;20.50;11.25;;;;;;;4.01;100.00;102648.28;5549550;32;34116;-66
2024/01/29 10:48:58;;;;;;;19.60;12.27;;;;;;;4.05;100.00;102636.69;5550029;32;34106;-67
2024/01/29 10:52:03;;;;;;;20.02;10.88;;;;;;;4.27;100.00;102642.66;5552385;32;33898;-65
2024/01/29 10:55:10;;;;;;;20.45;11.00;;;;;;;4.27;100.00;102633.00;5549848;32;34863;-67
2024/01/29 10:58:20;;;;;;;18.40;10.23;;;;;;;4.38;100.00;102635.12;5548429;32;34180;-66
2024/01/29 11:01:23;;;;;;;18.62;10.82;;;;;;;4.44;100.00;102636.59;5550009;32;34784;-68
2024/01/29 11:04:28;;;;;;;16.48;10.70;;;;;;;4.45;100.00;102631.28;5549136;32;33151;-67
2024/01/29 11:07:33;;;;;;;23.27;10.35;;;;;;;4.47;100.00;102628.56;5550955;32;34795;-66
2024/01/29 11:10:36;;;;;;;17.98;9.43;;;;;;;4.45;100.00;102612.03;5549693;32;34110;-67
2024/01/29 11:13:40;;;;;;;15.88;9.45;;;;;;;4.52;100.00;102610.78;5549575;32;34555;-67
2024/01/29 11:16:43;;;;;;;17.83;9.40;;;;;;;4.69;100.00;102613.47;5549989;32;34015;-66
2024/01/29 11:19:50;;;;;;;20.98;10.60;;;;;;;4.71;100.00;102606.34;5548847;32;34433;-66
2024/01/29 11:23:00;;;;;;;15.23;8.98;;;;;;;4.72;100.00;102602.78;5548754;32;33675;-66
2024/01/29 11:26:04;;;;;;;18.77;8.83;;;;;;;4.83;100.00;102597.84;5549025;32;34810;-67
2024/01/29 11:29:07;;;;;;;16.37;9.82;;;;;;;4.89;100.00;102594.06;5549261;32;34104;-67
2024/01/29 11:32:13;;;;;;;19.83;11.48;;;;;;;5.02;100.00;102587.25;5549170;32;34147;-67
2024/01/29 11:35:21;;;;;;;14.65;10.50;;;;;;;5.13;100.00;102585.75;5549537;32;34339;-67
2024/01/29 11:38:34;;;;;;;16.95;10.50;;;;;;;5.06;100.00;102584.38;5549069;32;34994;-67
2024/01/29 11:41:37;;;;;;;19.48;10.27;;;;;;;5.35;100.00;102572.34;5549186;32;34392;-67
2024/01/29 11:44:41;;;;;;;18.75;10.02;;;;;;;6.45;98.70;102578.56;5548939;32;34317;-68
2024/01/29 11:47:43;;;;;;;19.23;10.40;;;;;;;7.04;89.27;102579.50;5549270;32;34686;-67
2024/01/29 11:50:48;;;;;;;18.50;10.13;;;;;;;7.08;86.55;102574.88;5549200;32;34118;-66
2024/01/29 11:53:51;;;;;;;16.37;9.95;;;;;;;6.51;88.12;102572.94;5549022;32;34128;-67
2024/01/29 11:56:54;;;;;;;19.80;9.65;;;;;;;6.48;89.98;102574.91;5548829;32;34478;-67
2024/01/29 11:59:57;;;;;;;19.75;9.82;;;;;;;6.18;93.54;102566.94;5548829;32;34103;-67
2024/01/29 12:03:00;;;;;;;14.55;9.40;;;;;;;5.85;95.56;102560.88;5548817;32;34166;-67
2024/01/29 12:06:05;;;;;;;15.95;9.35;;;;;;;5.70;99.34;102559.94;5549110;32;34743;-67
2024/01/29 12:09:10;;;;;;;19.50;9.35;;;;;;;5.76;100.00;102566.66;5548685;32;34160;-67
2024/01/29 12:12:14;;;;;;;15.82;9.15;;;;;;;5.59;99.61;102562.28;5548734;32;34689;-67
2024/01/29 12:15:17;;;;;;;14.77;8.45;;;;;;;5.81;96.39;102567.25;5548669;32;34983;-68
2024/01/29 12:18:23;;;;;;;14.18;8.45;;;;;;;7.89;82.85;102565.47;5548851;32;34744;-67
2024/01/29 12:21:26;;;;;;;15.35;8.55;;;;;;;8.62;71.86;102582.72;5548720;32;33974;-67
2024/01/29 12:24:30;;;;;;;14.35;7.90;;;;;;;9.60;69.08;102577.72;5548740;32;34008;-68
2024/01/29 12:27:34;;;;;;;12.98;7.70;;;;;;;10.20;63.99;102582.28;5549091;32;34089;-68
2024/01/29 12:30:37;;;;;;;13.95;7.47;;;;;;;10.41;62.89;102578.03;5548108;32;34364;-69
2024/01/29 12:33:46;;;;;;;14.20;7.47;;;;;;;11.17;59.28;102574.94;5547685;32;34676;-68
2024/01/29 12:36:52;;;;;;;12.48;7.57;;;;;;;10.32;61.04;102570.75;5548150;32;34176;-68
2024/01/29 12:39:56;;;;;;;12.52;7.45;;;;;;;8.46;64.77;102563.53;5547766;32;34589;-68
2024/01/29 12:43:01;;;;;;;12.68;7.50;;;;;;;9.63;63.72;102558.97;5548330;32;34132;-68
2024/01/29 12:46:12;;;;;;;13.45;7.47;;;;;;;9.01;65.09;102552.72;5547445;32;34686;-69
2024/01/29 12:49:16;;;;;;;18.23;8.05;;;;;;;10.90;59.81;102557.47;5548523;32;34217;-68
2024/01/29 12:52:19;;;;;;;12.07;7.25;;;;;;;11.21;58.27;102563.94;5548254;32;34834;-68
2024/01/29 12:55:23;;;;;;;17.48;7.40;;;;;;;11.33;57.22;102567.44;5547424;32;34774;-68
2024/01/29 12:58:26;;;;;;;15.63;7.68;;;;;;;11.04;56.70;102563.53;5548428;32;34743;-67
2024/01/29 13:01:29;;;;;;;15.15;7.65;;;;;;;9.84;59.07;102556.56;5547887;32;34290;-68
2024/01/29 13:04:32;;;;;;;11.57;7.82;;;;;;;9.33;62.09;102555.81;5547334;32;34122;-68
2024/01/29 13:07:37;;;;;;;17.50;8.55;;;;;;;9.37;61.34;102550.19;5547893;32;34056;-67
2024/01/29 13:10:40;;;;;;;15.05;8.27;;;;;;;8.82;64.56;102555.75;5547319;32;34718;-67
2024/01/29 13:13:43;;;;;;;14.60;8.13;;;;;;;9.10;64.73;102555.56;5547297;32;34123;-67
2024/01/29 13:16:45;;;;;;;16.02;8.70;;;;;;;8.82;63.50;102547.81;5547376;32;35231;-67
2024/01/29 13:19:48;;;;;;;16.17;9.15;;;;;;;8.33;67.19;102539.66;5548544;32;34258;-68
2024/01/29 13:22:51;;;;;;;14.57;9.02;;;;;;;8.08;68.92;102550.97;5550525;32;34033;-68
2024/01/29 13:25:54;;;;;;;14.68;8.55;;;;;;;8.76;66.88;102552.69;5550399;32;34053;-67
2024/01/29 13:28:57;;;;;;;15.98;8.73;;;;;;;9.22;65.97;102555.69;5550542;32;34038;-67
2024/01/29 13:32:00;;;;;;;14.27;8.60;;;;;;;8.88;65.35;102549.22;5550184;32;34689;-67
2024/01/29 13:35:03;;;;;;;15.75;8.45;;;;;;;8.50;65.15;102552.63;5550702;32;34171;-67
2024/01/29 13:38:06;;;;;;;18.75;8.80;;;;;;;8.59;65.00;102552.03;5550546;32;34003;-67
2024/01/29 13:41:12;;;;;;;14.45;9.13;;;;;;;8.35;65.52;102544.84;5549515;32;34255;-67
2024/01/29 13:44:15;;;;;;;15.15;9.45;;;;;;;8.18;66.65;102538.81;5550452;32;34680;-68
2024/01/29 13:47:18;;;;;;;19.58;9.40;;;;;;;8.02;67.08;102545.22;5549206;32;34302;-66
2024/01/29 13:50:24;;;;;;;19.35;10.02;;;;;;;8.01;66.90;102535.59;5550291;32;34832;-66